sensor_id;sensor_type;location;lat;lon;timestamp;temperature;humidity
43987;DHT22;29650;47.378;8.300;2022-12-18T00:02:15;-0.40;99.90
43987;DHT22;29650;47.378;8.300;2022-12-18T00:04:42;-0.40;99.90
43987;DHT22;29650;47.378;8.300;2022-12-18T00:07:10;-0.50;99.90
43987;DHT22;29650;47.378;8.300;2022-12-18T00:09:37;-0.40;99.90
43987;DHT22;29650;47.378;8.300;2022-12-18T00:12:04;-0.40;99.90
43987;DHT22;29650;47.378;8.300;2022-12-18T00:14:31;-0.30;99.90
43987;DHT22;29650;47.378;8.300;2022-12-18T00:16:58;-0.30;99.90
43987;DHT22;29650;47.378;8.300;2022-12-18T00:19:26;-0.40;99.90
43987;DHT22;29650;47.378;8.300;2022-12-18T00:21:53;-0.40;99.90
43987;DHT22;29650;47.378;8.300;2022-12-18T00:24:22;-0.50;99.90
43987;DHT22;29650;47.378;8.300;2022-12-18T00:26:49;-0.50;99.90
43987;DHT22;29650;47.378;8.300;2022-12-18T00:29:16;-0.60;99.90
43987;DHT22;29650;47.378;8.300;2022-12-18T00:31:43;-0.60;99.90
43987;DHT22;29650;47.378;8.300;2022-12-18T00:34:11;-0.50;99.90
43987;DHT22;29650;47.378;8.300;2022-12-18T00:36:39;-0.40;99.90
43987;DHT22;29650;47.378;8.300;2022-12-18T00:39:07;-0.50;99.90
43987;DHT22;29650;47.378;8.300;2022-12-18T00:41:35;-0.40;99.90
43987;DHT22;29650;47.378;8.300;2022-12-18T00:44:19;-0.40;99.90
43987;DHT22;29650;47.378;8.300;2022-12-18T00:46:47;-0.40;99.90
43987;DHT22;29650;47.378;8.300;2022-12-18T00:49:15;-0.40;99.90
43987;DHT22;29650;47.378;8.300;2022-12-18T00:51:43;-0.40;99.90
43987;DHT22;29650;47.378;8.300;2022-12-18T00:54:10;-0.30;99.90
43987;DHT22;29650;47.378;8.300;2022-12-18T00:56:39;-0.20;99.90
43987;DHT22;29650;47.378;8.300;2022-12-18T00:59:06;-0.50;99.90
43987;DHT22;29650;47.378;8.300;2022-12-18T01:01:33;-0.50;99.90
43987;DHT22;29650;47.378;8.300;2022-12-18T01:04:00;-0.50;99.90
43987;DHT22;29650;47.378;8.300;2022-12-18T01:06:27;-0.50;99.90
43987;DHT22;29650;47.378;8.300;2022-12-18T01:08:54;-0.50;99.90
43987;DHT22;29650;47.378;8.300;2022-12-18T01:11:22;-0.70;99.90
43987;DHT22;29650;47.378;8.300;2022-12-18T01:13:51;-0.80;99.90
43987;DHT22;29650;47.378;8.300;2022-12-18T01:16:18;-0.80;99.90
43987;DHT22;29650;47.378;8.300;2022-12-18T01:18:45;-0.70;99.90
43987;DHT22;29650;47.378;8.300;2022-12-18T01:21:14;-0.60;99.90
43987;DHT22;29650;47.378;8.300;2022-12-18T01:23:41;-0.60;99.90
43987;DHT22;29650;47.378;8.300;2022-12-18T01:26:14;-0.60;99.90
43987;DHT22;29650;47.378;8.300;2022-12-18T01:28:41;-0.60;99.90
43987;DHT22;29650;47.378;8.300;2022-12-18T01:31:12;-0.60;99.90
43987;DHT22;29650;47.378;8.300;2022-12-18T01:33:40;-0.70;99.90
43987;DHT22;29650;47.378;8.300;2022-12-18T01:36:07;-0.80;99.90
43987;DHT22;29650;47.378;8.300;2022-12-18T01:38:35;-0.80;99.90
43987;DHT22;29650;47.378;8.300;2022-12-18T01:41:02;-0.70;99.90
43987;DHT22;29650;47.378;8.300;2022-12-18T01:43:47;-0.60;99.90
43987;DHT22;29650;47.378;8.300;2022-12-18T01:46:16;-0.70;99.90
43987;DHT22;29650;47.378;8.300;2022-12-18T01:48:43;-0.70;99.90
43987;DHT22;29650;47.378;8.300;2022-12-18T01:51:11;-0.80;99.90
43987;DHT22;29650;47.378;8.300;2022-12-18T01:53:41;-0.90;99.90
43987;DHT22;29650;47.378;8.300;2022-12-18T01:56:11;-0.90;99.90
43987;DHT22;29650;47.378;8.300;2022-12-18T01:58:43;-0.90;99.90
43987;DHT22;29650;47.378;8.300;2022-12-18T02:01:12;-0.70;99.90
43987;DHT22;29650;47.378;8.300;2022-12-18T02:03:42;-0.70;99.90
43987;DHT22;29650;47.378;8.300;2022-12-18T02:06:14;-0.80;99.90
43987;DHT22;29650;47.378;8.300;2022-12-18T02:08:50;-0.90;99.90
43987;DHT22;29650;47.378;8.300;2022-12-18T02:11:26;-0.90;99.90
43987;DHT22;29650;47.378;8.300;2022-12-18T02:14:04;-0.80;99.90
43987;DHT22;29650;47.378;8.300;2022-12-18T02:16:39;-0.70;99.90
43987;DHT22;29650;47.378;8.300;2022-12-18T02:19:20;-0.60;99.90
43987;DHT22;29650;47.378;8.300;2022-12-18T02:21:55;-0.60;99.90
43987;DHT22;29650;47.378;8.300;2022-12-18T02:24:33;-0.60;99.90
43987;DHT22;29650;47.378;8.300;2022-12-18T02:27:04;-0.50;99.90
43987;DHT22;29650;47.378;8.300;2022-12-18T02:29:36;-0.50;99.90
43987;DHT22;29650;47.378;8.300;2022-12-18T02:32:08;-0.50;99.90
43987;DHT22;29650;47.378;8.300;2022-12-18T02:34:38;-0.40;99.90
43987;DHT22;29650;47.378;8.300;2022-12-18T02:37:07;-0.40;99.90
43987;DHT22;29650;47.378;8.300;2022-12-18T02:39:37;-0.30;99.90
43987;DHT22;29650;47.378;8.300;2022-12-18T02:42:06;-0.40;99.90
43987;DHT22;29650;47.378;8.300;2022-12-18T02:44:34;-0.40;99.90
43987;DHT22;29650;47.378;8.300;2022-12-18T02:47:01;-0.50;99.90
43987;DHT22;29650;47.378;8.300;2022-12-18T02:49:36;-0.50;99.90
43987;DHT22;29650;47.378;8.300;2022-12-18T02:52:08;-0.50;99.90
43987;DHT22;29650;47.378;8.300;2022-12-18T02:54:56;-0.40;99.90
43987;DHT22;29650;47.378;8.300;2022-12-18T02:57:34;-0.40;99.90
43987;DHT22;29650;47.378;8.300;2022-12-18T03:00:06;-0.30;99.90
43987;DHT22;29650;47.378;8.300;2022-12-18T03:02:39;-0.40;99.90
43987;DHT22;29650;47.378;8.300;2022-12-18T03:05:12;-0.40;99.90
43987;DHT22;29650;47.378;8.300;2022-12-18T03:07:43;-0.40;99.90
43987;DHT22;29650;47.378;8.300;2022-12-18T03:10:14;-0.30;99.90
43987;DHT22;29650;47.378;8.300;2022-12-18T03:12:49;-0.40;99.90
43987;DHT22;29650;47.378;8.300;2022-12-18T03:15:22;-0.40;99.90
43987;DHT22;29650;47.378;8.300;2022-12-18T03:17:54;-0.40;99.90
43987;DHT22;29650;47.378;8.300;2022-12-18T03:20:23;-0.40;99.90
43987;DHT22;29650;47.378;8.300;2022-12-18T03:22:54;-0.30;99.90
43987;DHT22;29650;47.378;8.300;2022-12-18T03:25:23;-0.30;99.90
43987;DHT22;29650;47.378;8.300;2022-12-18T03:27:56;-0.30;99.90
43987;DHT22;29650;47.378;8.300;2022-12-18T03:30:26;-0.40;99.90
43987;DHT22;29650;47.378;8.300;2022-12-18T03:33:01;-0.30;99.90
43987;DHT22;29650;47.378;8.300;2022-12-18T03:35:33;-0.40;99.90
43987;DHT22;29650;47.378;8.300;2022-12-18T03:38:01;-0.40;99.90
43987;DHT22;29650;47.378;8.300;2022-12-18T03:40:34;-0.40;99.90
43987;DHT22;29650;47.378;8.300;2022-12-18T03:43:07;-0.70;99.90
43987;DHT22;29650;47.378;8.300;2022-12-18T03:45:38;-0.60;99.90
43987;DHT22;29650;47.378;8.300;2022-12-18T03:48:12;-0.50;99.90
43987;DHT22;29650;47.378;8.300;2022-12-18T03:50:46;-0.50;99.90
43987;DHT22;29650;47.378;8.300;2022-12-18T03:53:21;-0.50;99.90
43987;DHT22;29650;47.378;8.300;2022-12-18T03:55:50;-0.60;99.90
43987;DHT22;29650;47.378;8.300;2022-12-18T03:58:22;-0.40;99.90
43987;DHT22;29650;47.378;8.300;2022-12-18T04:00:51;-0.50;99.90
43987;DHT22;29650;47.378;8.300;2022-12-18T04:03:20;-0.60;99.90
43987;DHT22;29650;47.378;8.300;2022-12-18T04:05:48;-0.60;99.90
43987;DHT22;29650;47.378;8.300;2022-12-18T04:08:17;-0.40;99.90
43987;DHT22;29650;47.378;8.300;2022-12-18T04:10:44;-0.40;99.90
43987;DHT22;29650;47.378;8.300;2022-12-18T04:13:11;-0.40;99.90
43987;DHT22;29650;47.378;8.300;2022-12-18T04:15:40;-0.50;99.90
43987;DHT22;29650;47.378;8.300;2022-12-18T04:18:08;-0.50;99.90
43987;DHT22;29650;47.378;8.300;2022-12-18T04:20:35;-0.50;99.90
43987;DHT22;29650;47.378;8.300;2022-12-18T04:23:02;-0.50;99.90
43987;DHT22;29650;47.378;8.300;2022-12-18T04:25:29;-0.50;99.90
43987;DHT22;29650;47.378;8.300;2022-12-18T04:27:56;-0.40;99.90
43987;DHT22;29650;47.378;8.300;2022-12-18T04:30:22;-0.40;99.90
43987;DHT22;29650;47.378;8.300;2022-12-18T04:32:51;-0.40;99.90
43987;DHT22;29650;47.378;8.300;2022-12-18T04:35:18;-0.50;99.90
43987;DHT22;29650;47.378;8.300;2022-12-18T04:37:45;-0.40;99.90
43987;DHT22;29650;47.378;8.300;2022-12-18T04:40:12;-0.30;99.90
43987;DHT22;29650;47.378;8.300;2022-12-18T04:42:39;-0.40;99.90
43987;DHT22;29650;47.378;8.300;2022-12-18T04:45:07;-0.30;99.90
43987;DHT22;29650;47.378;8.300;2022-12-18T04:47:34;-0.30;99.90
43987;DHT22;29650;47.378;8.300;2022-12-18T04:50:04;-0.20;99.90
43987;DHT22;29650;47.378;8.300;2022-12-18T04:52:31;-0.20;99.90
43987;DHT22;29650;47.378;8.300;2022-12-18T04:54:57;-0.20;99.90
43987;DHT22;29650;47.378;8.300;2022-12-18T04:57:24;-0.30;99.90
43987;DHT22;29650;47.378;8.300;2022-12-18T04:59:51;-0.30;99.90
43987;DHT22;29650;47.378;8.300;2022-12-18T05:02:18;-0.30;99.90
43987;DHT22;29650;47.378;8.300;2022-12-18T05:04:45;-0.20;99.90
43987;DHT22;29650;47.378;8.300;2022-12-18T05:07:13;-0.30;99.90
43987;DHT22;29650;47.378;8.300;2022-12-18T05:09:40;-0.30;99.90
43987;DHT22;29650;47.378;8.300;2022-12-18T05:12:07;-0.40;99.90
43987;DHT22;29650;47.378;8.300;2022-12-18T05:14:34;-0.50;99.90
43987;DHT22;29650;47.378;8.300;2022-12-18T05:17:01;-0.60;99.90
43987;DHT22;29650;47.378;8.300;2022-12-18T05:19:28;-0.60;99.90
43987;DHT22;29650;47.378;8.300;2022-12-18T05:21:55;-0.50;99.90
43987;DHT22;29650;47.378;8.300;2022-12-18T05:24:24;-0.50;99.90
43987;DHT22;29650;47.378;8.300;2022-12-18T05:26:51;-0.40;99.90
43987;DHT22;29650;47.378;8.300;2022-12-18T05:29:18;-0.30;99.90
43987;DHT22;29650;47.378;8.300;2022-12-18T05:31:45;-0.40;99.90
43987;DHT22;29650;47.378;8.300;2022-12-18T05:34:12;-0.40;99.90
43987;DHT22;29650;47.378;8.300;2022-12-18T05:36:39;-0.40;99.90
43987;DHT22;29650;47.378;8.300;2022-12-18T05:39:06;-0.30;99.90
43987;DHT22;29650;47.378;8.300;2022-12-18T05:41:34;-0.40;99.90
43987;DHT22;29650;47.378;8.300;2022-12-18T05:44:01;-0.30;99.90
43987;DHT22;29650;47.378;8.300;2022-12-18T05:46:28;-0.40;99.90
43987;DHT22;29650;47.378;8.300;2022-12-18T05:48:59;-0.50;99.90
43987;DHT22;29650;47.378;8.300;2022-12-18T05:51:26;-0.40;99.90
43987;DHT22;29650;47.378;8.300;2022-12-18T05:53:53;-0.50;99.90
43987;DHT22;29650;47.378;8.300;2022-12-18T05:56:22;-0.50;99.90
43987;DHT22;29650;47.378;8.300;2022-12-18T05:58:52;-0.50;99.90
43987;DHT22;29650;47.378;8.300;2022-12-18T06:01:21;-0.50;99.90
43987;DHT22;29650;47.378;8.300;2022-12-18T06:03:49;-0.50;99.90
43987;DHT22;29650;47.378;8.300;2022-12-18T06:06:17;-0.60;99.90
43987;DHT22;29650;47.378;8.300;2022-12-18T06:08:44;-0.60;99.90
43987;DHT22;29650;47.378;8.300;2022-12-18T06:11:12;-0.60;99.90
43987;DHT22;29650;47.378;8.300;2022-12-18T06:13:39;-0.70;99.90
43987;DHT22;29650;47.378;8.300;2022-12-18T06:16:08;-0.70;99.90
43987;DHT22;29650;47.378;8.300;2022-12-18T06:18:37;-0.70;99.90
43987;DHT22;29650;47.378;8.300;2022-12-18T06:21:05;-0.60;99.90
43987;DHT22;29650;47.378;8.300;2022-12-18T06:23:32;-0.60;99.90
43987;DHT22;29650;47.378;8.300;2022-12-18T06:26:03;-0.60;99.90
43987;DHT22;29650;47.378;8.300;2022-12-18T06:28:30;-0.50;99.90
43987;DHT22;29650;47.378;8.300;2022-12-18T06:30:57;-0.50;99.90
43987;DHT22;29650;47.378;8.300;2022-12-18T06:33:27;-0.50;99.90
43987;DHT22;29650;47.378;8.300;2022-12-18T06:35:58;-0.60;99.90
43987;DHT22;29650;47.378;8.300;2022-12-18T06:38:26;-0.60;99.90
43987;DHT22;29650;47.378;8.300;2022-12-18T06:40:53;-0.60;99.90
43987;DHT22;29650;47.378;8.300;2022-12-18T06:43:20;-0.50;99.90
43987;DHT22;29650;47.378;8.300;2022-12-18T06:45:47;-0.40;99.90
43987;DHT22;29650;47.378;8.300;2022-12-18T06:48:18;-0.40;99.90
43987;DHT22;29650;47.378;8.300;2022-12-18T06:50:46;-0.50;99.90
43987;DHT22;29650;47.378;8.300;2022-12-18T06:53:13;-0.40;99.90
43987;DHT22;29650;47.378;8.300;2022-12-18T06:55:40;-0.50;99.90
43987;DHT22;29650;47.378;8.300;2022-12-18T06:58:07;-0.30;99.90
43987;DHT22;29650;47.378;8.300;2022-12-18T07:00:34;-0.30;99.90
43987;DHT22;29650;47.378;8.300;2022-12-18T07:03:02;-0.20;99.90
43987;DHT22;29650;47.378;8.300;2022-12-18T07:05:28;-0.20;99.90
43987;DHT22;29650;47.378;8.300;2022-12-18T07:07:57;-0.20;99.90
43987;DHT22;29650;47.378;8.300;2022-12-18T07:10:24;-0.30;99.90
43987;DHT22;29650;47.378;8.300;2022-12-18T07:12:51;-0.20;99.90
43987;DHT22;29650;47.378;8.300;2022-12-18T07:15:18;-0.20;99.90
43987;DHT22;29650;47.378;8.300;2022-12-18T07:17:45;-0.20;99.90
43987;DHT22;29650;47.378;8.300;2022-12-18T07:20:12;-0.30;99.90
43987;DHT22;29650;47.378;8.300;2022-12-18T07:22:39;-0.30;99.90
43987;DHT22;29650;47.378;8.300;2022-12-18T07:25:08;-0.40;99.90
43987;DHT22;29650;47.378;8.300;2022-12-18T07:27:35;-0.40;99.90
43987;DHT22;29650;47.378;8.300;2022-12-18T07:30:02;-0.70;99.90
43987;DHT22;29650;47.378;8.300;2022-12-18T07:32:30;-0.60;99.90
43987;DHT22;29650;47.378;8.300;2022-12-18T07:34:57;-0.50;99.90
43987;DHT22;29650;47.378;8.300;2022-12-18T07:37:24;-0.40;99.90
43987;DHT22;29650;47.378;8.300;2022-12-18T07:39:51;-0.30;99.90
43987;DHT22;29650;47.378;8.300;2022-12-18T07:42:19;-0.50;99.90
43987;DHT22;29650;47.378;8.300;2022-12-18T07:44:58;-0.60;99.90
43987;DHT22;29650;47.378;8.300;2022-12-18T07:47:25;-0.70;99.90
43987;DHT22;29650;47.378;8.300;2022-12-18T07:49:52;-0.60;99.90
43987;DHT22;29650;47.378;8.300;2022-12-18T07:52:19;-0.50;99.90
43987;DHT22;29650;47.378;8.300;2022-12-18T07:54:46;-0.50;99.90
43987;DHT22;29650;47.378;8.300;2022-12-18T07:57:14;-0.70;99.90
43987;DHT22;29650;47.378;8.300;2022-12-18T07:59:43;-0.70;99.90
43987;DHT22;29650;47.378;8.300;2022-12-18T08:02:10;-0.70;99.90
43987;DHT22;29650;47.378;8.300;2022-12-18T08:04:37;-0.60;99.90
43987;DHT22;29650;47.378;8.300;2022-12-18T08:07:03;-0.50;99.90
43987;DHT22;29650;47.378;8.300;2022-12-18T08:09:30;-0.60;99.90
43987;DHT22;29650;47.378;8.300;2022-12-18T08:11:57;-0.60;99.90
43987;DHT22;29650;47.378;8.300;2022-12-18T08:14:24;-0.50;99.90
43987;DHT22;29650;47.378;8.300;2022-12-18T08:16:53;-0.60;99.90
43987;DHT22;29650;47.378;8.300;2022-12-18T08:19:20;-0.60;99.90
43987;DHT22;29650;47.378;8.300;2022-12-18T08:21:46;-0.60;99.90
43987;DHT22;29650;47.378;8.300;2022-12-18T08:24:13;-0.70;99.90
43987;DHT22;29650;47.378;8.300;2022-12-18T08:26:40;-0.70;99.90
43987;DHT22;29650;47.378;8.300;2022-12-18T08:29:08;-0.60;99.90
43987;DHT22;29650;47.378;8.300;2022-12-18T08:31:35;-0.40;99.90
43987;DHT22;29650;47.378;8.300;2022-12-18T08:34:04;-0.50;99.90
43987;DHT22;29650;47.378;8.300;2022-12-18T08:36:31;-0.50;99.90
43987;DHT22;29650;47.378;8.300;2022-12-18T08:38:57;-0.50;99.90
43987;DHT22;29650;47.378;8.300;2022-12-18T08:41:25;-0.40;99.90
43987;DHT22;29650;47.378;8.300;2022-12-18T08:43:52;-0.40;99.90
43987;DHT22;29650;47.378;8.300;2022-12-18T08:46:38;-0.40;99.90
43987;DHT22;29650;47.378;8.300;2022-12-18T08:49:07;-0.50;99.90
43987;DHT22;29650;47.378;8.300;2022-12-18T08:51:35;-0.40;99.90
43987;DHT22;29650;47.378;8.300;2022-12-18T08:54:03;-0.40;99.90
43987;DHT22;29650;47.378;8.300;2022-12-18T08:56:30;-0.50;99.90
43987;DHT22;29650;47.378;8.300;2022-12-18T08:58:58;-0.40;99.90
43987;DHT22;29650;47.378;8.300;2022-12-18T09:01:25;-0.40;99.90
43987;DHT22;29650;47.378;8.300;2022-12-18T09:03:52;-0.40;99.90
43987;DHT22;29650;47.378;8.300;2022-12-18T09:06:22;-0.30;99.90
43987;DHT22;29650;47.378;8.300;2022-12-18T09:08:49;-0.20;99.90
43987;DHT22;29650;47.378;8.300;2022-12-18T09:11:21;-0.20;99.90
43987;DHT22;29650;47.378;8.300;2022-12-18T09:13:48;0.00;99.90
43987;DHT22;29650;47.378;8.300;2022-12-18T09:16:15;0.10;99.90
43987;DHT22;29650;47.378;8.300;2022-12-18T09:18:42;0.00;99.90
43987;DHT22;29650;47.378;8.300;2022-12-18T09:21:11;0.00;99.90
43987;DHT22;29650;47.378;8.300;2022-12-18T09:23:39;-0.10;99.90
43987;DHT22;29650;47.378;8.300;2022-12-18T09:26:07;-0.20;99.90
43987;DHT22;29650;47.378;8.300;2022-12-18T09:28:34;-0.20;99.90
43987;DHT22;29650;47.378;8.300;2022-12-18T09:31:05;0.10;99.90
43987;DHT22;29650;47.378;8.300;2022-12-18T09:33:33;0.00;99.90
43987;DHT22;29650;47.378;8.300;2022-12-18T09:36:02;0.00;99.90
43987;DHT22;29650;47.378;8.300;2022-12-18T09:38:29;-0.10;99.90
43987;DHT22;29650;47.378;8.300;2022-12-18T09:41:00;0.60;99.90
43987;DHT22;29650;47.378;8.300;2022-12-18T09:43:31;0.00;99.90
43987;DHT22;29650;47.378;8.300;2022-12-18T09:46:04;-0.10;99.90
43987;DHT22;29650;47.378;8.300;2022-12-18T09:48:35;0.00;99.90
43987;DHT22;29650;47.378;8.300;2022-12-18T09:51:05;0.00;99.90
43987;DHT22;29650;47.378;8.300;2022-12-18T09:53:37;-0.20;99.90
43987;DHT22;29650;47.378;8.300;2022-12-18T09:56:12;-0.10;99.90
43987;DHT22;29650;47.378;8.300;2022-12-18T09:58:45;0.00;99.90
43987;DHT22;29650;47.378;8.300;2022-12-18T10:01:22;-0.10;99.90
43987;DHT22;29650;47.378;8.300;2022-12-18T10:03:49;-0.10;99.90
43987;DHT22;29650;47.378;8.300;2022-12-18T10:06:20;0.00;99.90
43987;DHT22;29650;47.378;8.300;2022-12-18T10:08:53;0.10;99.90
43987;DHT22;29650;47.378;8.300;2022-12-18T10:11:34;0.30;99.90
43987;DHT22;29650;47.378;8.300;2022-12-18T10:14:09;0.30;99.90
43987;DHT22;29650;47.378;8.300;2022-12-18T10:16:46;0.30;99.90
43987;DHT22;29650;47.378;8.300;2022-12-18T10:19:25;0.20;99.90
43987;DHT22;29650;47.378;8.300;2022-12-18T10:22:02;0.40;99.90
43987;DHT22;29650;47.378;8.300;2022-12-18T10:24:35;0.40;99.90
43987;DHT22;29650;47.378;8.300;2022-12-18T10:27:13;0.60;99.90
43987;DHT22;29650;47.378;8.300;2022-12-18T10:29:42;0.70;99.90
43987;DHT22;29650;47.378;8.300;2022-12-18T10:32:15;0.50;99.90
43987;DHT22;29650;47.378;8.300;2022-12-18T10:34:45;0.30;99.90
43987;DHT22;29650;47.378;8.300;2022-12-18T10:37:16;0.40;99.90
43987;DHT22;29650;47.378;8.300;2022-12-18T10:39:44;0.40;99.90
43987;DHT22;29650;47.378;8.300;2022-12-18T10:42:18;0.40;99.90
43987;DHT22;29650;47.378;8.300;2022-12-18T10:44:46;0.50;99.90
43987;DHT22;29650;47.378;8.300;2022-12-18T10:47:27;0.50;99.90
43987;DHT22;29650;47.378;8.300;2022-12-18T10:49:54;0.70;99.90
43987;DHT22;29650;47.378;8.300;2022-12-18T10:52:23;0.50;99.90
43987;DHT22;29650;47.378;8.300;2022-12-18T10:54:52;0.30;99.90
43987;DHT22;29650;47.378;8.300;2022-12-18T10:57:40;0.40;99.90
43987;DHT22;29650;47.378;8.300;2022-12-18T11:00:23;0.30;99.90
43987;DHT22;29650;47.378;8.300;2022-12-18T11:02:51;0.30;99.90
43987;DHT22;29650;47.378;8.300;2022-12-18T11:05:28;0.20;99.90
43987;DHT22;29650;47.378;8.300;2022-12-18T11:07:56;0.40;99.90
43987;DHT22;29650;47.378;8.300;2022-12-18T11:10:28;0.40;99.90
43987;DHT22;29650;47.378;8.300;2022-12-18T11:13:10;0.40;99.90
43987;DHT22;29650;47.378;8.300;2022-12-18T11:15:40;0.40;99.90
43987;DHT22;29650;47.378;8.300;2022-12-18T11:18:19;0.50;99.90
43987;DHT22;29650;47.378;8.300;2022-12-18T11:20:51;0.40;99.90
43987;DHT22;29650;47.378;8.300;2022-12-18T11:23:20;0.40;99.90
43987;DHT22;29650;47.378;8.300;2022-12-18T11:25:53;0.40;99.90
43987;DHT22;29650;47.378;8.300;2022-12-18T11:28:35;0.40;99.90
43987;DHT22;29650;47.378;8.300;2022-12-18T11:31:19;0.30;99.90
43987;DHT22;29650;47.378;8.300;2022-12-18T11:33:50;0.20;99.90
43987;DHT22;29650;47.378;8.300;2022-12-18T11:36:19;0.40;99.90
43987;DHT22;29650;47.378;8.300;2022-12-18T11:38:48;0.30;99.90
43987;DHT22;29650;47.378;8.300;2022-12-18T11:41:23;0.50;99.90
43987;DHT22;29650;47.378;8.300;2022-12-18T11:44:15;0.30;99.90
43987;DHT22;29650;47.378;8.300;2022-12-18T11:46:47;0.40;99.90
43987;DHT22;29650;47.378;8.300;2022-12-18T11:49:20;0.60;99.90
43987;DHT22;29650;47.378;8.300;2022-12-18T11:51:53;0.60;99.90
43987;DHT22;29650;47.378;8.300;2022-12-18T11:54:22;0.60;99.90
43987;DHT22;29650;47.378;8.300;2022-12-18T11:56:53;0.70;99.90
43987;DHT22;29650;47.378;8.300;2022-12-18T11:59:33;0.60;99.90
43987;DHT22;29650;47.378;8.300;2022-12-18T12:02:16;0.40;99.90
43987;DHT22;29650;47.378;8.300;2022-12-18T12:05:06;0.30;99.90
43987;DHT22;29650;47.378;8.300;2022-12-18T12:07:42;0.30;99.90
43987;DHT22;29650;47.378;8.300;2022-12-18T12:10:27;0.30;99.90
43987;DHT22;29650;47.378;8.300;2022-12-18T12:13:14;0.60;99.90
43987;DHT22;29650;47.378;8.300;2022-12-18T12:15:49;0.50;99.90
43987;DHT22;29650;47.378;8.300;2022-12-18T12:18:29;0.50;99.90
43987;DHT22;29650;47.378;8.300;2022-12-18T12:21:04;0.50;99.90
43987;DHT22;29650;47.378;8.300;2022-12-18T12:23:39;0.40;99.90
43987;DHT22;29650;47.378;8.300;2022-12-18T12:26:11;0.40;99.90
43987;DHT22;29650;47.378;8.300;2022-12-18T12:31:48;0.40;99.90
43987;DHT22;29650;47.378;8.300;2022-12-18T12:34:25;0.50;99.90
43987;DHT22;29650;47.378;8.300;2022-12-18T12:37:10;0.30;99.90
43987;DHT22;29650;47.378;8.300;2022-12-18T12:39:42;0.40;99.90
43987;DHT22;29650;47.378;8.300;2022-12-18T12:42:13;0.30;99.90
43987;DHT22;29650;47.378;8.300;2022-12-18T12:45:05;0.30;99.90
43987;DHT22;29650;47.378;8.300;2022-12-18T12:47:37;0.30;99.90
43987;DHT22;29650;47.378;8.300;2022-12-18T12:50:12;0.40;99.90
43987;DHT22;29650;47.378;8.300;2022-12-18T12:52:42;0.30;99.90
43987;DHT22;29650;47.378;8.300;2022-12-18T12:55:16;0.60;99.90
43987;DHT22;29650;47.378;8.300;2022-12-18T12:57:47;0.50;99.90
43987;DHT22;29650;47.378;8.300;2022-12-18T13:00:16;0.40;99.90
43987;DHT22;29650;47.378;8.300;2022-12-18T13:02:50;0.50;99.90
43987;DHT22;29650;47.378;8.300;2022-12-18T13:05:24;0.70;99.90
43987;DHT22;29650;47.378;8.300;2022-12-18T13:07:56;0.70;99.90
43987;DHT22;29650;47.378;8.300;2022-12-18T13:10:32;1.50;99.90
43987;DHT22;29650;47.378;8.300;2022-12-18T13:13:01;1.10;99.90
43987;DHT22;29650;47.378;8.300;2022-12-18T13:15:34;0.80;99.90
43987;DHT22;29650;47.378;8.300;2022-12-18T13:18:19;0.90;99.90
43987;DHT22;29650;47.378;8.300;2022-12-18T13:20:47;0.90;99.90
43987;DHT22;29650;47.378;8.300;2022-12-18T13:23:30;1.00;99.90
43987;DHT22;29650;47.378;8.300;2022-12-18T13:25:59;0.80;99.90
43987;DHT22;29650;47.378;8.300;2022-12-18T13:28:50;0.90;99.90
43987;DHT22;29650;47.378;8.300;2022-12-18T13:34:35;0.60;99.90
43987;DHT22;29650;47.378;8.300;2022-12-18T13:37:39;0.60;99.90
43987;DHT22;29650;47.378;8.300;2022-12-18T13:43:21;0.60;99.90
43987;DHT22;29650;47.378;8.300;2022-12-18T13:45:59;0.60;99.90
43987;DHT22;29650;47.378;8.300;2022-12-18T13:48:29;0.70;99.90
43987;DHT22;29650;47.378;8.300;2022-12-18T13:51:01;0.70;99.90
43987;DHT22;29650;47.378;8.300;2022-12-18T13:53:34;0.70;99.90
43987;DHT22;29650;47.378;8.300;2022-12-18T13:56:03;0.60;99.90
43987;DHT22;29650;47.378;8.300;2022-12-18T13:58:31;0.40;99.90
43987;DHT22;29650;47.378;8.300;2022-12-18T14:00:58;0.50;99.90
43987;DHT22;29650;47.378;8.300;2022-12-18T14:03:29;0.60;99.90
43987;DHT22;29650;47.378;8.300;2022-12-18T14:06:02;0.70;99.90
43987;DHT22;29650;47.378;8.300;2022-12-18T14:08:37;0.70;99.90
43987;DHT22;29650;47.378;8.300;2022-12-18T14:11:06;0.80;99.90
43987;DHT22;29650;47.378;8.300;2022-12-18T14:13:36;1.10;99.90
43987;DHT22;29650;47.378;8.300;2022-12-18T14:16:05;0.70;99.90
43987;DHT22;29650;47.378;8.300;2022-12-18T14:18:41;0.50;99.90
43987;DHT22;29650;47.378;8.300;2022-12-18T14:21:18;0.40;99.90
43987;DHT22;29650;47.378;8.300;2022-12-18T14:23:46;0.40;99.90
43987;DHT22;29650;47.378;8.300;2022-12-18T14:26:22;0.70;99.90
43987;DHT22;29650;47.378;8.300;2022-12-18T14:28:50;0.40;99.90
43987;DHT22;29650;47.378;8.300;2022-12-18T14:31:20;0.40;99.90
43987;DHT22;29650;47.378;8.300;2022-12-18T14:33:47;0.40;99.90
43987;DHT22;29650;47.378;8.300;2022-12-18T14:36:17;0.40;99.90
43987;DHT22;29650;47.378;8.300;2022-12-18T14:38:49;0.40;99.90
43987;DHT22;29650;47.378;8.300;2022-12-18T14:41:17;0.30;99.90
43987;DHT22;29650;47.378;8.300;2022-12-18T14:43:46;0.20;99.90
43987;DHT22;29650;47.378;8.300;2022-12-18T14:46:29;0.20;99.90
43987;DHT22;29650;47.378;8.300;2022-12-18T14:48:57;0.20;99.90
43987;DHT22;29650;47.378;8.300;2022-12-18T14:51:26;0.20;99.90
43987;DHT22;29650;47.378;8.300;2022-12-18T14:53:55;0.20;99.90
43987;DHT22;29650;47.378;8.300;2022-12-18T14:56:23;0.20;99.90
43987;DHT22;29650;47.378;8.300;2022-12-18T14:58:54;0.40;99.90
43987;DHT22;29650;47.378;8.300;2022-12-18T15:01:25;0.20;99.90
43987;DHT22;29650;47.378;8.300;2022-12-18T15:03:53;0.20;99.90
43987;DHT22;29650;47.378;8.300;2022-12-18T15:06:33;0.10;99.90
43987;DHT22;29650;47.378;8.300;2022-12-18T15:09:03;0.10;99.90
43987;DHT22;29650;47.378;8.300;2022-12-18T15:11:43;-0.10;99.90
43987;DHT22;29650;47.378;8.300;2022-12-18T15:14:34;-0.10;99.90
43987;DHT22;29650;47.378;8.300;2022-12-18T15:17:04;0.00;99.90
43987;DHT22;29650;47.378;8.300;2022-12-18T15:19:38;0.10;99.90
43987;DHT22;29650;47.378;8.300;2022-12-18T15:22:18;0.10;99.90
43987;DHT22;29650;47.378;8.300;2022-12-18T15:24:46;0.20;99.90
43987;DHT22;29650;47.378;8.300;2022-12-18T15:27:29;0.10;99.90
43987;DHT22;29650;47.378;8.300;2022-12-18T15:30:01;0.00;99.90
43987;DHT22;29650;47.378;8.300;2022-12-18T15:32:28;0.00;99.90
43987;DHT22;29650;47.378;8.300;2022-12-18T15:35:03;0.00;99.90
43987;DHT22;29650;47.378;8.300;2022-12-18T15:37:31;0.10;99.90
43987;DHT22;29650;47.378;8.300;2022-12-18T15:39:58;0.00;99.90
43987;DHT22;29650;47.378;8.300;2022-12-18T15:42:25;0.10;99.90
43987;DHT22;29650;47.378;8.300;2022-12-18T15:45:11;0.30;99.90
43987;DHT22;29650;47.378;8.300;2022-12-18T15:47:38;0.10;99.90
43987;DHT22;29650;47.378;8.300;2022-12-18T15:50:06;0.10;99.90
43987;DHT22;29650;47.378;8.300;2022-12-18T15:52:39;0.10;99.90
43987;DHT22;29650;47.378;8.300;2022-12-18T15:55:10;0.20;99.90
43987;DHT22;29650;47.378;8.300;2022-12-18T15:57:55;0.20;99.90
43987;DHT22;29650;47.378;8.300;2022-12-18T16:00:22;0.20;99.90
43987;DHT22;29650;47.378;8.300;2022-12-18T16:02:49;0.10;99.90
43987;DHT22;29650;47.378;8.300;2022-12-18T16:05:18;0.10;99.90
43987;DHT22;29650;47.378;8.300;2022-12-18T16:07:47;0.10;99.90
43987;DHT22;29650;47.378;8.300;2022-12-18T16:10:14;0.10;99.90